createdAt,value
2023-05-19T00:02:22.158Z,9.93
2023-05-19T00:05:31.191Z,9.93
2023-05-19T00:08:39.222Z,9.89
2023-05-19T00:11:43.010Z,9.93
2023-05-19T00:14:49.354Z,9.95
2023-05-19T00:17:57.286Z,9.93
2023-05-19T00:21:06.873Z,9.77
2023-05-19T00:24:18.580Z,9.86
2023-05-19T00:27:29.826Z,9.87
2023-05-19T00:30:34.618Z,9.98
2023-05-19T00:33:42.406Z,9.97
2023-05-19T00:37:03.275Z,10.07
2023-05-19T00:40:16.173Z,10.17
2023-05-19T00:43:39.126Z,10.18
2023-05-19T00:46:49.063Z,10.07
2023-05-19T00:50:00.623Z,10.07
2023-05-19T00:53:15.189Z,10.16
2023-05-19T00:56:34.743Z,10.14
2023-05-19T00:59:50.035Z,10.11
2023-05-19T01:03:06.431Z,10.34
2023-05-19T01:07:00.186Z,10.35
2023-05-19T01:10:28.043Z,10.39
2023-05-19T01:13:49.375Z,10.30
2023-05-19T01:17:14.357Z,10.46
2023-05-19T01:20:46.544Z,10.43
2023-05-19T01:24:16.928Z,10.41
2023-05-19T01:28:12.562Z,10.45
2023-05-19T01:31:24.804Z,10.32
2023-05-19T01:34:31.921Z,10.27
2023-05-19T01:37:45.633Z,10.32
2023-05-19T01:41:03.014Z,10.31
2023-05-19T01:44:08.167Z,10.32
2023-05-19T01:47:18.716Z,10.33
2023-05-19T01:50:23.129Z,10.29
2023-05-19T01:53:28.125Z,10.36
2023-05-19T01:56:46.552Z,10.36
2023-05-19T02:00:15.952Z,10.41
2023-05-19T02:03:45.052Z,10.43
2023-05-19T02:07:05.775Z,10.38
2023-05-19T02:10:16.634Z,10.40
2023-05-19T02:13:25.107Z,10.46
2023-05-19T02:16:30.764Z,10.47
2023-05-19T02:19:40.342Z,10.46
2023-05-19T02:22:45.714Z,10.43
2023-05-19T02:25:52.935Z,10.37
2023-05-19T02:28:56.356Z,10.32
2023-05-19T02:32:02.739Z,10.30
2023-05-19T02:35:06.869Z,10.33
2023-05-19T02:38:12.806Z,10.35
2023-05-19T02:41:16.490Z,10.36
2023-05-19T02:44:20.218Z,10.33
2023-05-19T02:47:23.803Z,10.37
2023-05-19T02:50:27.088Z,10.39
2023-05-19T02:53:32.416Z,10.36
2023-05-19T02:56:35.990Z,10.39
2023-05-19T02:59:39.138Z,10.35
2023-05-19T03:02:44.327Z,10.38
2023-05-19T03:05:49.118Z,10.37
2023-05-19T03:08:53.421Z,10.35
2023-05-19T03:11:56.765Z,10.32
2023-05-19T03:15:01.032Z,10.31
2023-05-19T03:18:05.127Z,10.30
2023-05-19T03:21:09.916Z,10.30
2023-05-19T03:24:15.145Z,10.29
2023-05-19T03:27:18.860Z,10.32
2023-05-19T03:30:42.548Z,10.32
2023-05-19T03:34:02.399Z,10.30
2023-05-19T03:37:06.297Z,10.34
2023-05-19T03:40:20.510Z,10.34
2023-05-19T03:43:29.793Z,10.40
2023-05-19T03:46:37.318Z,10.46
2023-05-19T03:49:59.122Z,10.51
2023-05-19T03:53:20.821Z,10.61
2023-05-19T03:56:28.915Z,10.66
2023-05-19T03:59:36.480Z,10.70
2023-05-19T04:02:41.878Z,10.74
2023-05-19T04:05:45.608Z,10.69
2023-05-19T04:08:49.419Z,10.69
2023-05-19T04:11:55.061Z,10.69
2023-05-19T04:14:59.750Z,10.79
2023-05-19T04:18:03.153Z,10.80
2023-05-19T04:21:08.757Z,10.79
2023-05-19T04:24:11.859Z,10.79
2023-05-19T04:27:16.235Z,10.83
2023-05-19T04:30:22.841Z,10.92
2023-05-19T04:33:29.667Z,10.95
2023-05-19T04:36:34.701Z,11.05
2023-05-19T04:39:45.828Z,11.05
2023-05-19T04:42:56.425Z,11.05
2023-05-19T04:46:12.497Z,11.09
2023-05-19T04:49:20.137Z,11.19
2023-05-19T04:52:28.840Z,11.35
2023-05-19T04:55:37.663Z,11.42
2023-05-19T04:58:47.223Z,11.56
2023-05-19T05:02:02.939Z,11.66
2023-05-19T05:05:13.042Z,11.85
2023-05-19T05:08:23.421Z,12.03
2023-05-19T05:11:28.215Z,12.19
2023-05-19T05:14:38.262Z,12.29
2023-05-19T05:17:48.533Z,12.48
2023-05-19T05:20:59.574Z,12.63
2023-05-19T05:24:06.904Z,12.88
2023-05-19T05:27:12.645Z,13.09
2023-05-19T05:30:19.414Z,13.12
2023-05-19T05:33:29.655Z,13.17
2023-05-19T05:36:37.505Z,13.29
2023-05-19T05:39:42.453Z,13.23
2023-05-19T05:43:06.790Z,13.29
2023-05-19T05:46:35.441Z,13.38
2023-05-19T05:50:58.780Z,13.63
2023-05-19T05:54:57.857Z,13.62
2023-05-19T05:58:50.196Z,14.17
2023-05-19T06:01:58.339Z,14.37
2023-05-19T06:05:05.545Z,14.25
2023-05-19T06:12:03.616Z,14.27
2023-05-19T06:15:12.931Z,14.48
2023-05-19T06:18:47.619Z,14.80
2023-05-19T06:21:53.349Z,15.07
2023-05-19T06:25:30.929Z,15.11
2023-05-19T06:28:40.840Z,14.98
2023-05-19T06:31:58.393Z,15.09
2023-05-19T06:35:15.632Z,15.31
2023-05-19T06:38:31.396Z,15.63
2023-05-19T06:41:47.603Z,15.52
2023-05-19T06:45:33.556Z,15.64
2023-05-19T06:53:20.888Z,15.84
2023-05-19T07:08:20.972Z,16.24
2023-05-19T07:17:07.777Z,16.27
2023-05-19T07:20:20.266Z,16.40
2023-05-19T07:23:28.008Z,16.58
2023-05-19T07:26:37.313Z,16.71
2023-05-19T07:29:42.138Z,16.86
2023-05-19T07:32:46.763Z,17.10
2023-05-19T07:35:57.021Z,17.21
2023-05-19T07:39:02.899Z,17.02
2023-05-19T07:42:22.496Z,16.85
2023-05-19T07:46:20.278Z,16.95
2023-05-19T07:49:24.813Z,16.57
2023-05-19T07:52:34.131Z,17.07
2023-05-19T07:55:39.758Z,17.19
2023-05-19T07:58:53.474Z,17.59
2023-05-19T08:02:05.073Z,17.74
2023-05-19T08:05:10.374Z,17.82
2023-05-19T08:08:40.161Z,17.91
2023-05-19T08:12:11.699Z,17.59
2023-05-19T08:15:21.303Z,17.46
2023-05-19T08:18:25.493Z,17.74
2023-05-19T08:21:30.005Z,17.92
2023-05-19T08:24:34.125Z,18.21
2023-05-19T08:27:41.182Z,18.39
2023-05-19T08:30:44.867Z,18.63
2023-05-19T08:34:53.166Z,18.39
2023-05-19T08:38:01.765Z,18.69
2023-05-19T08:41:09.323Z,18.72
2023-05-19T08:44:14.017Z,18.79
2023-05-19T08:47:20.173Z,18.81
2023-05-19T08:50:34.037Z,18.94
2023-05-19T08:53:47.299Z,18.94
2023-05-19T08:57:00.600Z,19.15
2023-05-19T09:00:17.386Z,19.25
2023-05-19T09:06:51.982Z,19.17
2023-05-19T09:09:56.918Z,19.40
2023-05-19T09:13:00.806Z,19.61
2023-05-19T09:16:12.164Z,19.62
2023-05-19T09:19:16.426Z,19.46
2023-05-19T09:22:22.894Z,19.50
2023-05-19T09:25:26.821Z,19.68
2023-05-19T09:28:35.919Z,19.22
2023-05-19T09:31:39.877Z,19.18
2023-05-19T09:34:44.218Z,19.32
2023-05-19T09:37:47.678Z,19.57
2023-05-19T09:40:52.637Z,19.43
2023-05-19T09:43:58.877Z,19.76
2023-05-19T09:47:05.316Z,20.05
2023-05-19T09:50:10.252Z,20.34
2023-05-19T09:53:15.577Z,20.60
2023-05-19T09:56:24.064Z,21.04
2023-05-19T09:59:31.298Z,21.07
2023-05-19T10:02:44.239Z,20.79
2023-05-19T10:06:02.468Z,20.89
2023-05-19T10:09:06.648Z,20.35
2023-05-19T10:12:11.440Z,20.53
2023-05-19T10:15:19.208Z,20.31
2023-05-19T10:18:27.179Z,21.24
2023-05-19T10:21:31.624Z,20.72
2023-05-19T10:24:35.525Z,21.55
2023-05-19T10:31:34.196Z,21.55
2023-05-19T10:35:08.154Z,21.61
2023-05-19T10:38:33.026Z,22.17
2023-05-19T10:41:54.940Z,22.98
2023-05-19T10:45:21.658Z,23.98
2023-05-19T10:48:25.132Z,24.42
2023-05-19T10:51:32.935Z,24.68
2023-05-19T10:54:46.632Z,24.73
2023-05-19T10:57:59.528Z,23.97
2023-05-19T11:01:21.287Z,24.12
2023-05-19T11:04:56.853Z,24.56
2023-05-19T11:08:12.757Z,25.79
2023-05-19T11:11:17.556Z,25.82
2023-05-19T11:14:26.148Z,25.84
2023-05-19T11:17:30.148Z,24.04
2023-05-19T11:20:36.199Z,25.79
2023-05-19T11:23:40.349Z,26.75
2023-05-19T11:26:51.540Z,26.95
2023-05-19T11:29:57.374Z,27.15
2023-05-19T11:33:01.014Z,26.23
2023-05-19T11:36:08.621Z,25.33
2023-05-19T11:39:15.816Z,26.00
2023-05-19T11:42:20.449Z,26.73
2023-05-19T11:45:27.672Z,26.32
2023-05-19T11:48:34.357Z,27.41
2023-05-19T11:51:38.650Z,27.23
2023-05-19T11:54:44.975Z,27.05
2023-05-19T11:58:05.586Z,27.45
2023-05-19T12:01:10.491Z,27.00
2023-05-19T12:04:14.384Z,27.31
2023-05-19T12:07:19.617Z,26.17
2023-05-19T12:10:28.105Z,26.78
2023-05-19T12:13:31.378Z,27.81
2023-05-19T12:16:35.967Z,27.91
2023-05-19T12:19:40.196Z,27.69
2023-05-19T12:22:44.394Z,28.88
2023-05-19T12:25:48.698Z,28.08
2023-05-19T12:28:53.111Z,28.59
2023-05-19T12:31:56.610Z,28.04
2023-05-19T12:35:02.582Z,29.13
2023-05-19T12:38:07.680Z,30.24
2023-05-19T12:41:14.029Z,31.02
2023-05-19T12:44:17.790Z,31.36
2023-05-19T12:47:21.275Z,29.47
2023-05-19T12:50:31.398Z,29.04
2023-05-19T12:53:35.529Z,29.97
2023-05-19T12:56:40.027Z,29.45
2023-05-19T12:59:44.064Z,29.30
2023-05-19T13:03:05.714Z,28.67
2023-05-19T13:06:12.471Z,29.49
2023-05-19T13:09:18.030Z,29.70
2023-05-19T13:12:21.905Z,29.22
2023-05-19T13:15:44.016Z,29.74
2023-05-19T13:19:25.966Z,27.80
2023-05-19T13:22:29.363Z,29.21
2023-05-19T13:25:35.714Z,30.57
2023-05-19T13:28:38.779Z,30.71
2023-05-19T13:31:42.105Z,29.97
2023-05-19T13:34:45.133Z,30.57
2023-05-19T13:37:49.134Z,30.59
2023-05-19T13:40:52.305Z,29.64
2023-05-19T13:43:59.354Z,28.30
2023-05-19T13:47:02.190Z,28.07
2023-05-19T13:50:05.807Z,28.13
2023-05-19T13:53:09.212Z,29.74
2023-05-19T13:56:12.158Z,28.51
2023-05-19T13:59:17.435Z,28.56
2023-05-19T14:02:21.180Z,27.97
2023-05-19T14:05:26.499Z,27.38
2023-05-19T14:08:31.176Z,27.91
2023-05-19T14:11:34.535Z,28.51
2023-05-19T14:14:38.920Z,28.66
2023-05-19T14:17:42.249Z,28.05
2023-05-19T14:20:45.382Z,28.90
2023-05-19T14:23:48.656Z,27.80
2023-05-19T14:26:52.857Z,26.97
2023-05-19T14:29:56.036Z,26.64
2023-05-19T14:32:59.279Z,28.18
2023-05-19T14:36:02.401Z,27.00
2023-05-19T14:39:05.826Z,27.74
2023-05-19T14:42:08.972Z,27.74
2023-05-19T14:45:11.966Z,27.51
2023-05-19T14:48:15.067Z,27.39
2023-05-19T14:51:18.086Z,28.22
2023-05-19T14:54:21.221Z,27.54
2023-05-19T14:57:24.131Z,27.47
2023-05-19T15:00:27.884Z,26.22
2023-05-19T15:03:31.023Z,26.06
2023-05-19T15:06:37.028Z,26.16
2023-05-19T15:09:40.422Z,25.58
2023-05-19T15:12:43.705Z,24.62
2023-05-19T15:15:47.084Z,24.59
2023-05-19T15:18:51.812Z,24.93
2023-05-19T15:21:55.205Z,24.54
2023-05-19T15:24:58.464Z,24.59
2023-05-19T15:28:05.111Z,24.06
2023-05-19T15:31:11.297Z,24.21
2023-05-19T15:34:14.252Z,24.09
2023-05-19T15:37:17.100Z,24.14
2023-05-19T15:40:20.253Z,24.36
2023-05-19T15:43:23.255Z,24.60
2023-05-19T15:46:26.725Z,24.73
2023-05-19T15:49:29.828Z,24.66
2023-05-19T15:52:32.902Z,24.67
2023-05-19T15:55:35.772Z,24.97
2023-05-19T15:58:38.543Z,25.14
2023-05-19T16:01:41.450Z,25.10
2023-05-19T16:04:44.290Z,24.57
2023-05-19T16:07:47.210Z,24.27
2023-05-19T16:10:50.129Z,23.87
2023-05-19T16:13:53.108Z,23.63
2023-05-19T16:16:56.906Z,23.47
2023-05-19T16:20:00.047Z,23.29
2023-05-19T16:23:03.514Z,23.14
2023-05-19T16:26:06.346Z,22.82
2023-05-19T16:29:12.011Z,22.77
2023-05-19T16:32:18.117Z,22.89
2023-05-19T16:35:22.218Z,22.79
2023-05-19T16:38:25.325Z,22.77
2023-05-19T16:41:28.537Z,22.88
2023-05-19T16:44:31.592Z,22.69
2023-05-19T16:47:35.583Z,22.58
2023-05-19T16:50:39.983Z,22.52
2023-05-19T16:53:43.206Z,22.45
2023-05-19T16:56:46.585Z,22.45
2023-05-19T16:59:49.772Z,22.35
2023-05-19T17:02:53.123Z,22.26
2023-05-19T17:05:56.273Z,22.15
2023-05-19T17:08:59.354Z,21.99
2023-05-19T17:12:02.271Z,21.93
2023-05-19T17:15:05.865Z,21.85
2023-05-19T17:18:08.956Z,21.70
2023-05-19T17:21:12.161Z,21.57
2023-05-19T17:24:15.078Z,21.46
2023-05-19T17:27:17.951Z,21.38
2023-05-19T17:30:20.924Z,21.24
2023-05-19T17:33:24.225Z,21.15
2023-05-19T17:36:27.754Z,21.04
2023-05-19T17:39:30.826Z,20.90
2023-05-19T17:42:34.107Z,20.75
2023-05-19T17:45:37.689Z,20.64
2023-05-19T17:48:41.216Z,20.53
2023-05-19T17:51:44.869Z,20.50
2023-05-19T17:54:48.667Z,20.51
2023-05-19T17:57:52.174Z,20.52
2023-05-19T18:00:56.029Z,20.49
2023-05-19T18:03:59.552Z,20.45
2023-05-19T18:07:04.175Z,20.34
2023-05-19T18:10:08.540Z,20.31
2023-05-19T18:13:14.194Z,20.26
2023-05-19T18:16:17.199Z,20.24
2023-05-19T18:19:21.091Z,20.12
2023-05-19T18:22:24.654Z,20.01
2023-05-19T18:25:27.827Z,20.03
2023-05-19T18:28:30.765Z,20.03
2023-05-19T18:31:33.889Z,20.01
2023-05-19T18:34:37.130Z,20.01
2023-05-19T18:37:40.911Z,19.91
2023-05-19T18:40:44.085Z,19.84
2023-05-19T18:43:50.457Z,19.78
2023-05-19T18:46:53.823Z,19.81
2023-05-19T18:49:57.007Z,19.88
2023-05-19T18:53:00.387Z,19.92
2023-05-19T18:56:04.541Z,19.84
2023-05-19T18:59:09.942Z,19.75
2023-05-19T19:02:12.924Z,19.82
2023-05-19T19:05:16.364Z,19.73
2023-05-19T19:08:19.854Z,19.63
2023-05-19T19:11:26.624Z,19.50
2023-05-19T19:14:33.374Z,19.39
2023-05-19T19:17:43.023Z,19.30
2023-05-19T19:20:46.723Z,19.29
2023-05-19T19:23:55.506Z,19.23
2023-05-19T19:26:59.596Z,19.15
2023-05-19T19:30:04.919Z,18.97
2023-05-19T19:33:20.487Z,18.71
2023-05-19T19:36:24.223Z,18.41
2023-05-19T19:39:28.609Z,18.13
2023-05-19T19:42:36.656Z,17.95
2023-05-19T19:45:42.102Z,17.69
2023-05-19T19:48:48.853Z,17.56
2023-05-19T19:51:55.318Z,17.31
2023-05-19T19:54:58.910Z,17.28
2023-05-19T19:58:02.495Z,17.17
2023-05-19T20:01:08.052Z,17.09
2023-05-19T20:04:14.200Z,17.10
2023-05-19T20:07:21.236Z,16.86
2023-05-19T20:10:27.516Z,16.71
2023-05-19T20:13:32.705Z,16.57
2023-05-19T20:16:36.927Z,16.55
2023-05-19T20:19:40.299Z,16.44
2023-05-19T20:22:46.118Z,16.27
2023-05-19T20:26:06.725Z,16.18
2023-05-19T20:29:12.943Z,16.15
2023-05-19T20:32:15.999Z,16.15
2023-05-19T20:35:19.404Z,16.08
2023-05-19T20:38:22.275Z,15.96
2023-05-19T20:41:25.417Z,15.84
2023-05-19T20:44:31.247Z,15.70
2023-05-19T20:47:34.239Z,15.65
2023-05-19T20:50:37.828Z,15.61
2023-05-19T20:53:40.785Z,15.65
2023-05-19T20:56:44.382Z,15.60
2023-05-19T20:59:47.362Z,15.58
2023-05-19T21:02:50.678Z,15.52
2023-05-19T21:05:55.137Z,15.46
2023-05-19T21:08:58.230Z,15.46
2023-05-19T21:12:01.454Z,15.47
2023-05-19T21:15:06.127Z,15.42
2023-05-19T21:18:11.580Z,15.35
2023-05-19T21:21:14.828Z,15.22
2023-05-19T21:24:17.898Z,15.14
2023-05-19T21:27:20.948Z,15.01
2023-05-19T21:30:24.588Z,14.92
2023-05-19T21:33:27.499Z,14.84
2023-05-19T21:36:30.714Z,14.66
2023-05-19T21:39:33.590Z,14.59
2023-05-19T21:42:36.661Z,14.45
2023-05-19T21:45:40.145Z,14.28
2023-05-19T21:48:42.846Z,14.19
2023-05-19T21:51:45.888Z,14.19
2023-05-19T21:54:48.860Z,13.95
2023-05-19T21:57:52.587Z,13.90
2023-05-19T22:00:56.277Z,13.83
2023-05-19T22:03:59.140Z,13.80
2023-05-19T22:07:06.592Z,13.73
2023-05-19T22:10:10.398Z,13.67
2023-05-19T22:13:13.240Z,13.64
2023-05-19T22:16:16.090Z,13.55
2023-05-19T22:19:20.245Z,13.52
2023-05-19T22:22:23.283Z,13.52
2023-05-19T22:25:26.560Z,13.51
2023-05-19T22:28:29.541Z,13.49
2023-05-19T22:31:32.720Z,13.44
2023-05-19T22:34:35.998Z,13.39
2023-05-19T22:37:39.599Z,13.36
2023-05-19T22:40:42.653Z,13.36
2023-05-19T22:43:45.938Z,13.34
2023-05-19T22:46:49.278Z,13.30
2023-05-19T22:49:53.056Z,13.20
2023-05-19T22:52:57.167Z,13.13
2023-05-19T22:56:00.162Z,12.98
2023-05-19T22:59:03.292Z,12.98
2023-05-19T23:02:06.417Z,12.96
2023-05-19T23:05:09.804Z,12.83
2023-05-19T23:08:12.935Z,12.81
2023-05-19T23:11:15.794Z,12.79
2023-05-19T23:14:19.101Z,12.72
2023-05-19T23:17:23.105Z,12.64
2023-05-19T23:20:26.583Z,12.62
2023-05-19T23:23:32.685Z,12.62
2023-05-19T23:26:35.908Z,12.70
2023-05-19T23:29:39.392Z,12.69
2023-05-19T23:32:42.612Z,12.66
2023-05-19T23:35:49.432Z,12.56
2023-05-19T23:38:52.374Z,12.45
2023-05-19T23:41:55.321Z,12.39
2023-05-19T23:44:58.067Z,12.30
2023-05-19T23:48:01.120Z,12.30
2023-05-19T23:51:04.218Z,12.30
2023-05-19T23:54:06.967Z,12.30
2023-05-19T23:57:10.142Z,12.24
